Current | Forecast
Updated: 4:55 AM JST on December 14, 2017
Observed at Iwakuni MCAS, Japan
Temperature 34°F
Windchill 27°F
Humidity 82%
Dew Point 29°F
Wind WNW at 9 mph
Pressure 30.32 in (Steady)
Conditions Partly Cloudy
Visibility 6.2 miles
UV 0 out of 16
Clouds (FEW) : 3000 ft
(FEW) : 6000 ft
Yesterday's Maximum 45°F
Yesterday's Minimum 30°F approx.
Yesterday's Heating Degree Days 28 approx.
Sunrise7:07 AM JST
Sunset5:01 PM JST
Moon Rise3:07 AM JST
Moon Set2:40 PM JST
Moon PhaseMoon Phase
Waning Crescent
Raw METARMETAR RJOI 131955Z 30008KT 9999 FEW030 FEW060 01/M02 A3032 RMK SLP266 T00111017


Monday
. High: 71° F.
Tuesday
. High: 75° F.
Wednesday
. High: 73° F.
Thursday
. High: 73° F.
Friday
. High: 73° F.
Saturday
. High: 75° F.
Sunday
. High: 77° F.
Monday
. High: 78° F.

Units: English | Metric

Find the Weather for any City, State or Zipcode, or Country:

U.S. State List | Severe Weather | Tropical Storms | Ski Conditions
United States | Canada | Central America | South America | Asia | Europe | Australia | Africa | Islands

Weather Underground

© Copyright 2017
The Weather Company, LLC